createdAt,value
2023-05-17T00:01:43.314Z,1.00
2023-05-17T00:04:10.416Z,1.00
2023-05-17T00:06:37.188Z,1.77
2023-05-17T00:09:04.047Z,1.00
2023-05-17T00:11:31.591Z,1.00
2023-05-17T00:13:58.470Z,1.10
2023-05-17T00:16:25.233Z,1.08
2023-05-17T00:18:52.086Z,0.95
2023-05-17T00:21:18.919Z,1.30
2023-05-17T00:23:45.682Z,1.17
2023-05-17T00:26:13.713Z,1.20
2023-05-17T00:28:40.415Z,1.35
2023-05-17T00:31:07.165Z,1.40
2023-05-17T00:33:33.931Z,0.93
2023-05-17T00:36:00.843Z,0.95
2023-05-17T00:38:27.600Z,1.10
2023-05-17T00:40:54.584Z,1.10
2023-05-17T00:43:21.276Z,1.17
2023-05-17T00:45:50.183Z,1.20
2023-05-17T00:48:17.132Z,1.60
2023-05-17T00:50:43.913Z,1.30
2023-05-17T00:53:16.121Z,1.17
2023-05-17T00:55:44.121Z,1.17
2023-05-17T00:58:12.964Z,1.00
2023-05-17T01:00:39.678Z,1.45
2023-05-17T01:03:06.655Z,1.10
2023-05-17T01:05:33.772Z,1.30
2023-05-17T01:08:00.766Z,1.00
2023-05-17T01:10:41.450Z,1.50
2023-05-17T01:13:15.975Z,1.27
2023-05-17T01:15:53.311Z,0.93
2023-05-17T01:18:28.251Z,0.88
2023-05-17T01:20:58.776Z,1.38
2023-05-17T01:23:32.091Z,1.58
2023-05-17T01:26:38.833Z,1.20
2023-05-17T01:29:07.848Z,1.00
2023-05-17T01:31:36.511Z,1.00
2023-05-17T01:34:10.775Z,1.35
2023-05-17T01:36:37.525Z,1.05
2023-05-17T01:39:04.407Z,1.08
2023-05-17T01:41:39.829Z,1.00
2023-05-17T01:44:33.787Z,1.20
2023-05-17T01:47:14.863Z,1.00
2023-05-17T01:49:46.393Z,1.20
2023-05-17T01:52:16.999Z,1.15
2023-05-17T01:55:06.498Z,1.13
2023-05-17T01:57:36.792Z,1.27
2023-05-17T02:00:08.080Z,1.17
2023-05-17T02:02:35.820Z,0.77
2023-05-17T02:05:02.633Z,0.80
2023-05-17T02:07:29.354Z,1.08
2023-05-17T02:09:56.046Z,1.20
2023-05-17T02:12:22.776Z,1.00
2023-05-17T02:14:49.584Z,1.08
2023-05-17T02:17:16.308Z,1.55
2023-05-17T02:19:43.046Z,1.00
2023-05-17T02:22:09.721Z,1.00
2023-05-17T02:24:36.555Z,1.40
2023-05-17T02:27:03.683Z,1.48
2023-05-17T02:29:30.835Z,1.23
2023-05-17T02:31:57.603Z,1.17
2023-05-17T02:34:24.344Z,1.30
2023-05-17T02:36:52.062Z,1.02
2023-05-17T02:39:18.939Z,1.05
2023-05-17T02:41:45.700Z,1.25
2023-05-17T02:44:12.414Z,0.90
2023-05-17T02:46:39.111Z,1.05
2023-05-17T02:49:06.054Z,1.40
2023-05-17T02:51:32.732Z,0.93
2023-05-17T02:53:59.532Z,1.27
2023-05-17T02:56:26.200Z,1.20
2023-05-17T02:58:52.912Z,1.30
2023-05-17T03:01:19.709Z,1.00
2023-05-17T03:03:46.533Z,1.25
2023-05-17T03:06:13.304Z,0.85
2023-05-17T03:08:40.324Z,0.95
2023-05-17T03:11:07.416Z,1.02
2023-05-17T03:13:34.149Z,1.10
2023-05-17T03:16:00.671Z,1.10
2023-05-17T03:18:27.525Z,1.15
2023-05-17T03:20:54.293Z,1.10
2023-05-17T03:23:21.497Z,1.00
2023-05-17T03:25:48.228Z,0.90
2023-05-17T03:28:14.930Z,1.30
2023-05-17T03:30:41.806Z,0.98
2023-05-17T03:33:08.611Z,1.23
2023-05-17T03:35:35.407Z,1.00
2023-05-17T03:38:02.141Z,1.20
2023-05-17T03:40:31.127Z,1.50
2023-05-17T03:42:57.834Z,1.63
2023-05-17T03:45:24.567Z,1.45
2023-05-17T03:47:51.291Z,1.65
2023-05-17T03:50:18.227Z,1.10
2023-05-17T03:52:46.159Z,1.00
2023-05-17T03:55:12.968Z,1.00
2023-05-17T03:57:39.758Z,1.10
2023-05-17T04:00:11.598Z,1.23
2023-05-17T04:02:38.751Z,1.27
2023-05-17T04:05:06.023Z,1.20
2023-05-17T04:07:32.823Z,1.67
2023-05-17T04:09:59.554Z,1.45
2023-05-17T04:12:26.424Z,1.13
2023-05-17T04:14:53.166Z,1.10
2023-05-17T04:17:19.924Z,1.30
2023-05-17T04:19:46.911Z,1.25
2023-05-17T04:22:13.916Z,1.10
2023-05-17T04:24:40.606Z,1.23
2023-05-17T04:27:08.167Z,1.08
2023-05-17T04:29:34.920Z,1.58
2023-05-17T04:32:01.659Z,1.02
2023-05-17T04:34:28.554Z,1.48
2023-05-17T04:36:55.271Z,1.42
2023-05-17T04:39:22.248Z,1.92
2023-05-17T04:41:49.047Z,1.48
2023-05-17T04:44:15.774Z,1.58
2023-05-17T04:46:43.889Z,1.63
2023-05-17T04:49:10.719Z,1.48
2023-05-17T04:51:37.453Z,1.55
2023-05-17T04:54:06.930Z,1.63
2023-05-17T04:56:35.913Z,1.50
2023-05-17T04:59:03.563Z,1.50
2023-05-17T05:01:30.969Z,1.42
2023-05-17T05:03:58.550Z,1.27
2023-05-17T05:06:25.374Z,1.45
2023-05-17T05:08:52.709Z,1.63
2023-05-17T05:11:19.505Z,1.50
2023-05-17T05:13:46.277Z,1.50
2023-05-17T05:16:13.042Z,1.60
2023-05-17T05:18:40.888Z,1.30
2023-05-17T05:21:07.616Z,1.65
2023-05-17T05:23:34.342Z,1.50
2023-05-17T05:26:01.393Z,1.55
2023-05-17T05:28:28.274Z,1.50
2023-05-17T05:31:02.127Z,1.50
2023-05-17T05:33:28.946Z,1.40
2023-05-17T05:35:55.714Z,1.60
2023-05-17T05:38:22.661Z,1.35
2023-05-17T05:40:49.431Z,1.65
2023-05-17T05:43:16.563Z,1.63
2023-05-17T05:45:46.628Z,1.58
2023-05-17T05:48:14.027Z,1.60
2023-05-17T05:50:42.926Z,1.58
2023-05-17T05:53:18.715Z,1.75
2023-05-17T05:55:49.499Z,1.70
2023-05-17T05:58:16.258Z,1.90
2023-05-17T06:00:42.974Z,1.50
2023-05-17T06:03:09.748Z,1.70
2023-05-17T06:05:36.566Z,1.42
2023-05-17T06:08:03.522Z,2.00
2023-05-17T06:10:30.669Z,1.90
2023-05-17T06:12:57.694Z,1.92
2023-05-17T06:15:24.471Z,1.85
2023-05-17T06:17:51.297Z,1.80
2023-05-17T06:20:18.208Z,1.90
2023-05-17T06:22:44.941Z,2.15
2023-05-17T06:25:11.657Z,2.08
2023-05-17T06:27:38.572Z,2.10
2023-05-17T06:30:07.398Z,1.80
2023-05-17T06:32:34.787Z,2.10
2023-05-17T06:35:01.886Z,2.05
2023-05-17T06:37:28.648Z,2.35
2023-05-17T06:40:14.923Z,2.55
2023-05-17T06:42:43.027Z,2.08
2023-05-17T06:45:10.350Z,2.38
2023-05-17T06:47:39.510Z,2.50
2023-05-17T06:50:07.463Z,2.63
2023-05-17T06:52:34.964Z,2.45
2023-05-17T06:55:01.893Z,2.10
2023-05-17T06:57:28.681Z,2.67
2023-05-17T06:59:55.489Z,2.67
2023-05-17T07:02:22.261Z,2.42
2023-05-17T07:04:48.975Z,2.70
2023-05-17T07:07:15.814Z,2.63
2023-05-17T07:09:42.575Z,2.00
2023-05-17T07:12:09.399Z,2.90
2023-05-17T07:14:36.176Z,2.40
2023-05-17T07:17:02.973Z,2.50
2023-05-17T07:19:29.911Z,2.25
2023-05-17T07:21:56.708Z,2.88
2023-05-17T07:24:23.455Z,2.33
2023-05-17T07:26:52.168Z,2.53
2023-05-17T07:29:19.286Z,2.53
2023-05-17T07:31:45.981Z,2.63
2023-05-17T07:34:13.667Z,2.35
2023-05-17T07:36:40.690Z,2.30
2023-05-17T07:39:08.756Z,2.30
2023-05-17T07:41:36.982Z,3.10
2023-05-17T07:44:03.878Z,2.33
2023-05-17T07:46:30.634Z,2.30
2023-05-17T07:48:58.759Z,2.20
2023-05-17T07:51:26.376Z,2.88
2023-05-17T07:53:53.190Z,3.00
2023-05-17T07:56:19.938Z,2.55
2023-05-17T07:58:46.728Z,3.05
2023-05-17T08:01:13.467Z,2.53
2023-05-17T08:03:47.602Z,2.33
2023-05-17T08:06:16.110Z,2.47
2023-05-17T08:08:43.281Z,2.38
2023-05-17T08:11:11.679Z,2.47
2023-05-17T08:13:38.634Z,2.42
2023-05-17T08:16:13.552Z,2.60
2023-05-17T08:18:42.283Z,2.00
2023-05-17T08:21:09.750Z,2.88
2023-05-17T08:23:36.652Z,2.80
2023-05-17T08:26:03.396Z,2.63
2023-05-17T08:28:30.323Z,2.42
2023-05-17T08:30:57.922Z,2.47
2023-05-17T08:33:26.115Z,2.70
2023-05-17T08:35:55.349Z,2.63
2023-05-17T08:38:22.581Z,2.67
2023-05-17T08:40:56.989Z,2.55
2023-05-17T08:43:27.376Z,2.15
2023-05-17T08:45:57.555Z,3.38
2023-05-17T08:48:26.469Z,2.67
2023-05-17T08:50:55.877Z,2.67
2023-05-17T08:53:23.547Z,2.97
2023-05-17T08:55:51.414Z,3.10
2023-05-17T08:58:21.413Z,2.53
2023-05-17T09:00:51.684Z,3.13
2023-05-17T09:03:19.261Z,3.03
2023-05-17T09:05:46.463Z,2.45
2023-05-17T09:08:14.233Z,2.47
2023-05-17T09:10:41.803Z,2.40
2023-05-17T09:13:12.659Z,2.95
2023-05-17T09:15:43.078Z,2.38
2023-05-17T09:18:12.585Z,2.35
2023-05-17T09:20:40.842Z,3.17
2023-05-17T09:23:11.164Z,2.80
2023-05-17T09:25:37.929Z,2.72
2023-05-17T09:28:07.841Z,2.80
2023-05-17T09:30:38.910Z,2.55
2023-05-17T09:33:07.459Z,2.78
2023-05-17T09:35:35.328Z,2.58
2023-05-17T09:38:12.681Z,2.67
2023-05-17T09:40:42.582Z,2.75
2023-05-17T09:43:10.479Z,2.70
2023-05-17T09:45:37.822Z,2.22
2023-05-17T09:48:22.251Z,2.85
2023-05-17T09:50:50.843Z,2.92
2023-05-17T09:53:40.030Z,2.80
2023-05-17T09:56:07.569Z,3.10
2023-05-17T09:58:36.743Z,3.10
2023-05-17T10:01:07.350Z,3.20
2023-05-17T10:03:37.171Z,2.30
2023-05-17T10:06:07.140Z,2.47
2023-05-17T10:08:34.348Z,2.80
2023-05-17T10:11:09.446Z,3.10
2023-05-17T10:14:02.032Z,2.72
2023-05-17T10:16:29.652Z,2.80
2023-05-17T10:18:56.894Z,2.70
2023-05-17T10:21:24.051Z,2.47
2023-05-17T10:23:51.413Z,2.67
2023-05-17T10:26:18.825Z,2.28
2023-05-17T10:28:46.427Z,2.45
2023-05-17T10:31:13.202Z,2.90
2023-05-17T10:33:42.677Z,2.33
2023-05-17T10:36:10.937Z,2.47
2023-05-17T10:38:42.577Z,2.67
2023-05-17T10:41:12.813Z,2.30
2023-05-17T10:43:42.042Z,2.45
2023-05-17T10:46:17.878Z,2.20
2023-05-17T10:48:45.130Z,3.30
2023-05-17T10:51:12.109Z,2.80
2023-05-17T10:54:22.168Z,2.50
2023-05-17T10:56:51.371Z,2.30
2023-05-17T10:59:21.695Z,2.70
2023-05-17T11:02:09.795Z,2.53
2023-05-17T11:04:39.265Z,2.22
2023-05-17T11:07:29.310Z,2.60
2023-05-17T11:10:07.166Z,2.40
2023-05-17T11:12:38.439Z,2.25
2023-05-17T11:15:10.890Z,1.90
2023-05-17T11:17:50.430Z,2.20
2023-05-17T11:20:18.803Z,2.35
2023-05-17T11:23:07.043Z,2.50
2023-05-17T11:25:35.883Z,2.28
2023-05-17T11:28:19.698Z,2.30
2023-05-17T11:30:51.987Z,2.03
2023-05-17T11:33:32.831Z,2.25
2023-05-17T11:36:06.814Z,2.33
2023-05-17T11:38:34.328Z,1.98
2023-05-17T11:41:26.373Z,2.42
2023-05-17T11:43:54.471Z,2.47
2023-05-17T11:46:23.970Z,1.90
2023-05-17T11:48:52.833Z,2.22
2023-05-17T11:51:22.602Z,1.85
2023-05-17T11:53:54.360Z,3.92
2023-05-17T11:56:32.129Z,2.80
2023-05-17T11:59:09.575Z,2.25
2023-05-17T12:01:46.330Z,2.83
2023-05-17T12:04:13.843Z,2.03
2023-05-17T12:06:41.108Z,2.60
2023-05-17T12:09:11.095Z,2.33
2023-05-17T12:11:39.598Z,2.13
2023-05-17T12:14:07.270Z,2.10
2023-05-17T12:16:36.707Z,2.33
2023-05-17T12:19:03.952Z,2.30
2023-05-17T12:21:30.832Z,2.80
2023-05-17T12:23:57.670Z,2.30
2023-05-17T12:26:24.800Z,2.50
2023-05-17T12:28:56.238Z,2.42
2023-05-17T12:31:26.626Z,2.45
2023-05-17T12:33:53.813Z,2.88
2023-05-17T12:36:22.376Z,2.25
2023-05-17T12:38:49.711Z,2.40
2023-05-17T12:41:16.889Z,2.67
2023-05-17T12:43:45.859Z,2.45
2023-05-17T12:46:18.778Z,2.83
2023-05-17T12:48:46.327Z,2.63
2023-05-17T12:51:14.777Z,2.58
2023-05-17T12:53:43.504Z,2.80
2023-05-17T12:56:16.525Z,2.40
2023-05-17T12:58:43.377Z,2.35
2023-05-17T13:01:14.308Z,2.50
2023-05-17T13:03:42.448Z,2.50
2023-05-17T13:06:10.293Z,2.28
2023-05-17T13:08:37.618Z,2.78
2023-05-17T13:11:07.018Z,2.17
2023-05-17T13:13:34.419Z,2.47
2023-05-17T13:16:01.178Z,2.58
2023-05-17T13:18:28.766Z,2.45
2023-05-17T13:20:55.653Z,3.08
2023-05-17T13:23:22.336Z,2.63
2023-05-17T13:25:49.098Z,2.10
2023-05-17T13:28:15.831Z,2.28
2023-05-17T13:30:48.677Z,2.40
2023-05-17T13:33:15.846Z,2.22
2023-05-17T13:35:42.707Z,3.00
2023-05-17T13:38:09.409Z,2.97
2023-05-17T13:40:36.287Z,2.35
2023-05-17T13:43:03.261Z,2.60
2023-05-17T13:45:29.994Z,2.95
2023-05-17T13:47:57.153Z,2.50
2023-05-17T13:50:24.077Z,2.40
2023-05-17T13:52:50.779Z,2.67
2023-05-17T13:55:17.610Z,2.92
2023-05-17T13:57:45.632Z,2.28
2023-05-17T14:00:12.768Z,2.65
2023-05-17T14:02:39.920Z,2.40
2023-05-17T14:05:07.984Z,3.00
2023-05-17T14:07:34.698Z,2.53
2023-05-17T14:10:02.081Z,2.65
2023-05-17T14:12:28.965Z,2.60
2023-05-17T14:14:55.891Z,3.03
2023-05-17T14:17:22.682Z,2.60
2023-05-17T14:19:49.592Z,2.60
2023-05-17T14:22:16.384Z,2.85
2023-05-17T14:24:43.113Z,2.75
2023-05-17T14:27:10.038Z,2.40
2023-05-17T14:29:36.752Z,2.60
2023-05-17T14:32:03.681Z,2.08
2023-05-17T14:34:30.924Z,2.40
2023-05-17T14:36:57.603Z,2.30
2023-05-17T14:39:24.324Z,2.38
2023-05-17T14:41:51.036Z,2.35
2023-05-17T14:44:17.808Z,2.20
2023-05-17T14:46:44.491Z,2.33
2023-05-17T14:49:11.223Z,2.55
2023-05-17T14:51:37.941Z,3.05
2023-05-17T14:54:05.922Z,2.67
2023-05-17T14:56:32.666Z,2.42
2023-05-17T14:58:59.912Z,2.25
2023-05-17T15:01:26.680Z,2.28
2023-05-17T15:03:53.402Z,2.53
2023-05-17T15:06:24.820Z,2.00
2023-05-17T15:08:51.888Z,2.20
2023-05-17T15:11:18.600Z,2.38
2023-05-17T15:13:45.299Z,2.10
2023-05-17T15:16:12.148Z,2.20
2023-05-17T15:18:39.007Z,1.88
2023-05-17T15:21:05.773Z,1.65
2023-05-17T15:23:32.617Z,1.98
2023-05-17T15:25:59.301Z,1.88
2023-05-17T15:28:26.114Z,2.00
2023-05-17T15:31:10.743Z,2.15
2023-05-17T15:33:40.291Z,1.67
2023-05-17T15:36:07.437Z,1.80
2023-05-17T15:38:34.113Z,2.70
2023-05-17T15:41:04.424Z,2.03
2023-05-17T15:43:33.194Z,2.40
2023-05-17T15:46:00.824Z,2.03
2023-05-17T15:48:30.785Z,2.35
2023-05-17T15:50:58.195Z,2.38
2023-05-17T15:53:26.229Z,2.17
2023-05-17T15:55:53.110Z,1.85
2023-05-17T15:58:21.206Z,1.95
2023-05-17T16:00:48.252Z,2.28
2023-05-17T16:03:15.701Z,1.95
2023-05-17T16:05:43.088Z,1.92
2023-05-17T16:08:10.769Z,2.15
2023-05-17T16:10:37.777Z,2.17
2023-05-17T16:13:05.949Z,2.00
2023-05-17T16:15:33.094Z,1.80
2023-05-17T16:17:59.891Z,1.73
2023-05-17T16:20:26.850Z,2.20
2023-05-17T16:22:53.848Z,1.80
2023-05-17T16:25:24.264Z,2.00
2023-05-17T16:27:51.320Z,2.10
2023-05-17T16:30:18.794Z,1.75
2023-05-17T16:32:46.180Z,1.75
2023-05-17T16:35:14.087Z,1.80
2023-05-17T16:37:41.651Z,1.85
2023-05-17T16:40:09.263Z,2.03
2023-05-17T16:42:36.422Z,2.25
2023-05-17T16:45:04.432Z,1.77
2023-05-17T16:47:33.091Z,1.73
2023-05-17T16:50:01.400Z,1.80
2023-05-17T16:52:30.023Z,1.90
2023-05-17T16:55:03.161Z,2.25
2023-05-17T16:57:31.768Z,1.90
2023-05-17T17:00:00.798Z,2.25
2023-05-17T17:02:28.621Z,1.50
2023-05-17T17:04:55.757Z,1.90
2023-05-17T17:07:22.500Z,2.17
2023-05-17T17:09:49.303Z,1.90
2023-05-17T17:12:24.183Z,2.30
2023-05-17T17:14:52.419Z,2.25
2023-05-17T17:17:19.125Z,2.20
2023-05-17T17:19:45.977Z,1.88
2023-05-17T17:22:14.595Z,2.20
2023-05-17T17:24:41.780Z,2.13
2023-05-17T17:27:08.571Z,1.92
2023-05-17T17:29:35.528Z,2.10
2023-05-17T17:32:02.741Z,1.90
2023-05-17T17:34:29.564Z,2.08
2023-05-17T17:36:57.323Z,2.00
2023-05-17T17:39:24.042Z,2.05
2023-05-17T17:41:51.086Z,2.05
2023-05-17T17:44:17.796Z,2.08
2023-05-17T17:46:44.563Z,1.88
2023-05-17T17:49:11.328Z,2.40
2023-05-17T17:51:38.027Z,1.65
2023-05-17T17:54:07.174Z,2.00
2023-05-17T17:56:33.915Z,2.33
2023-05-17T17:59:00.631Z,2.00
2023-05-17T18:01:28.108Z,2.05
2023-05-17T18:03:55.006Z,2.15
2023-05-17T18:06:21.788Z,2.13
2023-05-17T18:08:48.482Z,2.20
2023-05-17T18:11:15.851Z,2.13
2023-05-17T18:13:42.644Z,1.90
2023-05-17T18:16:09.397Z,2.42
2023-05-17T18:18:40.419Z,2.20
2023-05-17T18:21:09.040Z,2.08
2023-05-17T18:23:36.865Z,2.10
2023-05-17T18:26:03.768Z,1.90
2023-05-17T18:28:41.343Z,1.92
2023-05-17T18:31:09.459Z,1.90
2023-05-17T18:33:36.486Z,2.00
2023-05-17T18:36:03.386Z,2.20
2023-05-17T18:38:30.194Z,2.10
2023-05-17T18:40:56.987Z,1.88
2023-05-17T18:43:23.706Z,2.40
2023-05-17T18:45:51.225Z,2.40
2023-05-17T18:48:18.110Z,3.63
2023-05-17T18:50:44.905Z,3.20
2023-05-17T18:53:12.884Z,3.28
2023-05-17T18:55:40.623Z,3.75
2023-05-17T18:58:07.838Z,2.75
2023-05-17T19:00:34.550Z,2.28
2023-05-17T19:03:01.801Z,2.72
2023-05-17T19:05:28.675Z,2.10
2023-05-17T19:07:55.716Z,2.40
2023-05-17T19:10:22.540Z,2.20
2023-05-17T19:12:49.245Z,2.20
2023-05-17T19:15:16.199Z,3.08
2023-05-17T19:17:43.080Z,4.13
2023-05-17T19:20:10.229Z,4.07
2023-05-17T19:22:37.064Z,4.20
2023-05-17T19:25:04.395Z,4.60
2023-05-17T19:27:32.468Z,2.75
2023-05-17T19:29:59.192Z,2.90
2023-05-17T19:32:26.857Z,2.97
2023-05-17T19:34:54.863Z,2.50
2023-05-17T19:37:21.635Z,2.20
2023-05-17T19:39:48.407Z,2.03
2023-05-17T19:42:15.123Z,2.50
2023-05-17T19:44:41.851Z,2.40
2023-05-17T19:47:08.534Z,2.60
2023-05-17T19:49:35.513Z,2.60
2023-05-17T19:52:02.469Z,3.05
2023-05-17T19:54:29.715Z,2.20
2023-05-17T19:56:57.086Z,2.17
2023-05-17T19:59:23.848Z,2.60
2023-05-17T20:01:50.702Z,2.38
2023-05-17T20:04:17.593Z,2.33
2023-05-17T20:06:44.419Z,2.80
2023-05-17T20:09:11.196Z,2.80
2023-05-17T20:11:37.886Z,3.63
2023-05-17T20:14:04.623Z,3.40
2023-05-17T20:16:31.546Z,3.05
2023-05-17T20:18:58.732Z,2.20
2023-05-17T20:21:26.304Z,4.85
2023-05-17T20:24:00.538Z,6.85
2023-05-17T20:26:31.484Z,4.70
2023-05-17T20:28:59.081Z,4.75
2023-05-17T20:31:26.243Z,3.20
2023-05-17T20:33:53.291Z,2.90
2023-05-17T20:36:20.309Z,2.83
2023-05-17T20:38:47.042Z,3.00
2023-05-17T20:41:15.851Z,3.00
2023-05-17T20:43:47.210Z,2.97
2023-05-17T20:46:16.744Z,3.28
2023-05-17T20:48:45.912Z,2.70
2023-05-17T20:51:13.044Z,3.00
2023-05-17T20:53:40.473Z,3.22
2023-05-17T20:56:07.488Z,2.58
2023-05-17T20:58:34.260Z,2.85
2023-05-17T21:01:01.254Z,2.28
2023-05-17T21:03:33.029Z,3.08
2023-05-17T21:06:01.594Z,2.53
2023-05-17T21:08:28.517Z,2.65
2023-05-17T21:10:56.120Z,2.65
2023-05-17T21:13:25.456Z,2.58
2023-05-17T21:15:53.774Z,2.90
2023-05-17T21:18:20.894Z,2.70
2023-05-17T21:20:51.456Z,2.70
2023-05-17T21:23:19.108Z,2.85
2023-05-17T21:25:46.100Z,3.10
2023-05-17T21:28:12.827Z,3.40
2023-05-17T21:30:39.541Z,3.60
2023-05-17T21:33:06.343Z,3.88
2023-05-17T21:35:33.072Z,2.97
2023-05-17T21:37:59.826Z,3.35
2023-05-17T21:40:26.575Z,2.75
2023-05-17T21:42:53.461Z,2.65
2023-05-17T21:45:20.379Z,2.88
2023-05-17T21:47:47.142Z,2.72
2023-05-17T21:50:13.989Z,2.90
2023-05-17T21:52:40.892Z,2.72
2023-05-17T21:55:08.338Z,2.78
2023-05-17T21:57:36.469Z,2.80
2023-05-17T22:00:04.597Z,2.80
2023-05-17T22:02:34.198Z,2.70
2023-05-17T22:05:00.927Z,3.25
2023-05-17T22:07:27.688Z,2.75
2023-05-17T22:09:55.184Z,3.38
2023-05-17T22:12:25.322Z,2.85
2023-05-17T22:14:54.176Z,3.33
2023-05-17T22:17:35.171Z,3.95
2023-05-17T22:20:11.444Z,3.42
2023-05-17T22:22:38.349Z,3.60
2023-05-17T22:25:06.674Z,3.80
2023-05-17T22:27:33.388Z,3.00
2023-05-17T22:30:00.062Z,3.17
2023-05-17T22:32:27.001Z,2.95
2023-05-17T22:34:53.713Z,3.08
2023-05-17T22:37:22.684Z,3.33
2023-05-17T22:39:49.745Z,3.42
2023-05-17T22:42:16.512Z,3.15
2023-05-17T22:44:43.220Z,3.72
2023-05-17T22:47:14.383Z,4.10
2023-05-17T22:49:41.595Z,3.42
2023-05-17T22:52:09.052Z,3.33
2023-05-17T22:54:36.987Z,3.03
2023-05-17T22:57:04.595Z,3.50
2023-05-17T22:59:32.840Z,3.50
2023-05-17T23:02:00.040Z,3.42
2023-05-17T23:04:27.327Z,3.63
2023-05-17T23:06:54.552Z,3.58
2023-05-17T23:09:22.137Z,3.58
2023-05-17T23:11:50.287Z,3.97
2023-05-17T23:14:17.795Z,3.80
2023-05-17T23:16:45.549Z,4.32
2023-05-17T23:19:13.617Z,3.80
2023-05-17T23:21:40.395Z,4.35
2023-05-17T23:24:08.022Z,3.97
2023-05-17T23:26:35.073Z,4.07
2023-05-17T23:29:03.524Z,4.32
2023-05-17T23:31:30.422Z,4.15
2023-05-17T23:33:57.181Z,4.03
2023-05-17T23:36:23.858Z,4.10
2023-05-17T23:38:50.560Z,3.78
2023-05-17T23:41:19.501Z,3.90
2023-05-17T23:43:46.886Z,4.22
2023-05-17T23:46:13.754Z,3.60
2023-05-17T23:48:40.649Z,3.90
2023-05-17T23:51:07.714Z,4.03
2023-05-17T23:53:34.478Z,4.05
2023-05-17T23:56:01.439Z,3.88
2023-05-17T23:58:28.240Z,3.45
